CYGW

Kuujjuarapik Airport

Kuujjuarapik, Quebec, Canada
METAR CYGW 231000Z AUTO 20013G21KT 9SM -SN CLR M12/M16 A2999 RMK SLP159
Observed Flight Rules
Feb-23 @ 10:00 UTC (29 minutes ago) Visual Flight Rules
Wind Visibility Clouds Conditions
200° at 13 knots
 Gusting to 21 knots
9 miles
  • Clear skies
  • Light Snow
Temperatures Readings
Current -12°C / 10°F
Dewpoint -16°C / 3°F
Humidity 72%
Altimeter 29.99" Hg
Pressure 1015.9 hPa
Elevation 12
METAR CYGW 231000Z AUTO 20013G21KT 9SM -SN CLR M12/M16 A2999 RMK SLP159
Observed Flight Rules
Feb-23 @ 10:00 UTC
(29 minutes ago)
VFR
Wind Visibility
200° at 13 knots
 Gusting to 21 knots
9 miles
Clouds
  • Clear skies
Conditions
  • Light Snow
Temperature Dewpoint
-12°C / 10°F -16°C / 3°F
Humidity Altimeter Pressure
72% 29.99" Hg 1015.9 hPa